sensor_id;sensor_type;location;lat;lon;timestamp;temperature;humidity
39889;DHT22;25563;50.844;4.308;2022-08-18T00:00:08;21.10;99.90
39889;DHT22;25563;50.844;4.308;2022-08-18T00:02:38;21.20;99.90
39889;DHT22;25563;50.844;4.308;2022-08-18T00:05:04;21.20;99.90
39889;DHT22;25563;50.844;4.308;2022-08-18T00:07:32;21.20;99.90
39889;DHT22;25563;50.844;4.308;2022-08-18T00:10:00;20.40;99.90
39889;DHT22;25563;50.844;4.308;2022-08-18T00:12:34;21.10;99.90
39889;DHT22;25563;50.844;4.308;2022-08-18T00:15:01;21.20;99.90
39889;DHT22;25563;50.844;4.308;2022-08-18T00:17:31;21.20;99.90
39889;DHT22;25563;50.844;4.308;2022-08-18T00:19:57;21.20;99.90
39889;DHT22;25563;50.844;4.308;2022-08-18T00:22:23;21.20;99.90
39889;DHT22;25563;50.844;4.308;2022-08-18T00:24:56;21.20;99.90
39889;DHT22;25563;50.844;4.308;2022-08-18T00:27:25;21.20;99.90
39889;DHT22;25563;50.844;4.308;2022-08-18T00:29:52;21.20;99.90
39889;DHT22;25563;50.844;4.308;2022-08-18T00:32:27;21.20;99.90
39889;DHT22;25563;50.844;4.308;2022-08-18T00:34:53;21.10;99.90
39889;DHT22;25563;50.844;4.308;2022-08-18T00:37:21;21.10;99.90
39889;DHT22;25563;50.844;4.308;2022-08-18T00:39:50;21.50;99.90
39889;DHT22;25563;50.844;4.308;2022-08-18T00:42:20;21.00;99.90
39889;DHT22;25563;50.844;4.308;2022-08-18T00:44:46;21.00;99.90
39889;DHT22;25563;50.844;4.308;2022-08-18T00:47:16;21.00;99.90
39889;DHT22;25563;50.844;4.308;2022-08-18T00:49:47;21.00;99.90
39889;DHT22;25563;50.844;4.308;2022-08-18T00:52:15;21.00;99.90
39889;DHT22;25563;50.844;4.308;2022-08-18T00:54:43;21.10;99.90
39889;DHT22;25563;50.844;4.308;2022-08-18T00:57:12;21.10;99.90
39889;DHT22;25563;50.844;4.308;2022-08-18T01:02:16;21.10;99.90
39889;DHT22;25563;50.844;4.308;2022-08-18T01:04:52;21.10;99.90
39889;DHT22;25563;50.844;4.308;2022-08-18T01:07:27;21.30;99.90
39889;DHT22;25563;50.844;4.308;2022-08-18T01:09:56;21.30;99.90
39889;DHT22;25563;50.844;4.308;2022-08-18T01:12:27;21.30;99.90
39889;DHT22;25563;50.844;4.308;2022-08-18T01:14:54;20.00;99.90
39889;DHT22;25563;50.844;4.308;2022-08-18T01:17:25;21.30;99.90
39889;DHT22;25563;50.844;4.308;2022-08-18T01:20:14;21.30;99.90
39889;DHT22;25563;50.844;4.308;2022-08-18T01:23:03;21.40;99.90
39889;DHT22;25563;50.844;4.308;2022-08-18T01:25:34;21.50;99.90
39889;DHT22;25563;50.844;4.308;2022-08-18T01:28:20;21.40;99.90
39889;DHT22;25563;50.844;4.308;2022-08-18T01:30:51;21.40;99.90
39889;DHT22;25563;50.844;4.308;2022-08-18T01:33:18;21.40;99.90
39889;DHT22;25563;50.844;4.308;2022-08-18T01:35:46;21.40;99.90
39889;DHT22;25563;50.844;4.308;2022-08-18T01:38:17;21.30;99.90
39889;DHT22;25563;50.844;4.308;2022-08-18T01:40:45;21.40;99.90
39889;DHT22;25563;50.844;4.308;2022-08-18T01:43:13;21.10;99.90
39889;DHT22;25563;50.844;4.308;2022-08-18T01:45:41;21.50;99.90
39889;DHT22;25563;50.844;4.308;2022-08-18T01:48:09;21.50;99.90
39889;DHT22;25563;50.844;4.308;2022-08-18T01:50:35;21.60;99.90
39889;DHT22;25563;50.844;4.308;2022-08-18T01:53:07;21.10;99.90
39889;DHT22;25563;50.844;4.308;2022-08-18T01:55:37;21.70;99.90
39889;DHT22;25563;50.844;4.308;2022-08-18T01:58:05;21.70;99.90
39889;DHT22;25563;50.844;4.308;2022-08-18T02:00:33;21.60;99.90
39889;DHT22;25563;50.844;4.308;2022-08-18T02:03:04;21.60;99.90
39889;DHT22;25563;50.844;4.308;2022-08-18T02:05:39;21.60;99.90
39889;DHT22;25563;50.844;4.308;2022-08-18T02:08:06;21.60;99.90
39889;DHT22;25563;50.844;4.308;2022-08-18T02:10:33;21.60;99.90
39889;DHT22;25563;50.844;4.308;2022-08-18T02:12:59;21.60;99.90
39889;DHT22;25563;50.844;4.308;2022-08-18T02:15:25;21.60;99.90
39889;DHT22;25563;50.844;4.308;2022-08-18T02:17:52;21.60;99.90
39889;DHT22;25563;50.844;4.308;2022-08-18T02:20:18;21.60;99.90
39889;DHT22;25563;50.844;4.308;2022-08-18T02:22:45;21.60;99.90
39889;DHT22;25563;50.844;4.308;2022-08-18T02:25:15;21.50;99.90
39889;DHT22;25563;50.844;4.308;2022-08-18T02:27:43;21.60;99.90
39889;DHT22;25563;50.844;4.308;2022-08-18T02:30:14;21.60;99.90
39889;DHT22;25563;50.844;4.308;2022-08-18T02:32:41;21.60;99.90
39889;DHT22;25563;50.844;4.308;2022-08-18T02:35:08;21.60;99.90
39889;DHT22;25563;50.844;4.308;2022-08-18T02:37:36;21.50;99.90
39889;DHT22;25563;50.844;4.308;2022-08-18T02:40:04;21.40;99.90
39889;DHT22;25563;50.844;4.308;2022-08-18T02:42:31;21.30;99.90
39889;DHT22;25563;50.844;4.308;2022-08-18T02:44:58;20.30;99.90
39889;DHT22;25563;50.844;4.308;2022-08-18T02:47:27;21.10;99.90
39889;DHT22;25563;50.844;4.308;2022-08-18T02:49:56;20.80;99.90
39889;DHT22;25563;50.844;4.308;2022-08-18T02:52:22;20.90;99.90
39889;DHT22;25563;50.844;4.308;2022-08-18T02:54:59;21.00;99.90
39889;DHT22;25563;50.844;4.308;2022-08-18T02:57:29;20.90;99.90
39889;DHT22;25563;50.844;4.308;2022-08-18T02:59:58;20.90;99.90
39889;DHT22;25563;50.844;4.308;2022-08-18T03:02:27;20.80;99.90
39889;DHT22;25563;50.844;4.308;2022-08-18T03:04:55;20.80;99.90
39889;DHT22;25563;50.844;4.308;2022-08-18T03:07:21;20.70;99.90
39889;DHT22;25563;50.844;4.308;2022-08-18T03:09:47;20.60;99.90
39889;DHT22;25563;50.844;4.308;2022-08-18T03:12:19;20.60;99.90
39889;DHT22;25563;50.844;4.308;2022-08-18T03:14:45;20.60;99.90
39889;DHT22;25563;50.844;4.308;2022-08-18T03:17:11;20.50;99.90
39889;DHT22;25563;50.844;4.308;2022-08-18T03:19:39;20.50;99.90
39889;DHT22;25563;50.844;4.308;2022-08-18T03:22:08;20.40;99.90
39889;DHT22;25563;50.844;4.308;2022-08-18T03:24:34;20.40;99.90
39889;DHT22;25563;50.844;4.308;2022-08-18T03:27:04;20.30;99.90
39889;DHT22;25563;50.844;4.308;2022-08-18T03:29:32;20.30;99.90
39889;DHT22;25563;50.844;4.308;2022-08-18T03:32:03;20.40;99.90
39889;DHT22;25563;50.844;4.308;2022-08-18T03:34:33;20.30;99.90
39889;DHT22;25563;50.844;4.308;2022-08-18T03:37:01;20.30;99.90
39889;DHT22;25563;50.844;4.308;2022-08-18T03:39:30;20.30;99.90
39889;DHT22;25563;50.844;4.308;2022-08-18T03:41:56;20.30;99.90
39889;DHT22;25563;50.844;4.308;2022-08-18T03:44:23;20.30;99.90
39889;DHT22;25563;50.844;4.308;2022-08-18T03:46:50;19.70;99.90
39889;DHT22;25563;50.844;4.308;2022-08-18T03:49:17;20.40;99.90
39889;DHT22;25563;50.844;4.308;2022-08-18T03:51:45;20.40;99.90
39889;DHT22;25563;50.844;4.308;2022-08-18T03:54:12;20.50;99.90
39889;DHT22;25563;50.844;4.308;2022-08-18T03:56:39;20.60;99.90
39889;DHT22;25563;50.844;4.308;2022-08-18T03:59:12;21.20;99.90
39889;DHT22;25563;50.844;4.308;2022-08-18T04:01:41;20.80;99.90
39889;DHT22;25563;50.844;4.308;2022-08-18T04:04:11;20.90;99.90
39889;DHT22;25563;50.844;4.308;2022-08-18T04:07:07;20.90;99.90
39889;DHT22;25563;50.844;4.308;2022-08-18T04:09:35;21.00;99.90
39889;DHT22;25563;50.844;4.308;2022-08-18T04:12:13;21.00;99.90
39889;DHT22;25563;50.844;4.308;2022-08-18T04:14:42;21.10;99.90
39889;DHT22;25563;50.844;4.308;2022-08-18T04:17:08;21.10;99.90
39889;DHT22;25563;50.844;4.308;2022-08-18T04:19:35;21.20;99.90
39889;DHT22;25563;50.844;4.308;2022-08-18T04:22:04;21.30;99.90
39889;DHT22;25563;50.844;4.308;2022-08-18T04:24:33;21.30;99.90
39889;DHT22;25563;50.844;4.308;2022-08-18T04:27:03;21.30;99.90
39889;DHT22;25563;50.844;4.308;2022-08-18T04:29:37;21.30;99.90
39889;DHT22;25563;50.844;4.308;2022-08-18T04:32:06;21.40;99.90
39889;DHT22;25563;50.844;4.308;2022-08-18T04:34:33;21.30;99.90
39889;DHT22;25563;50.844;4.308;2022-08-18T04:37:00;21.50;99.90
39889;DHT22;25563;50.844;4.308;2022-08-18T04:39:29;21.50;99.90
39889;DHT22;25563;50.844;4.308;2022-08-18T04:41:55;21.50;99.90
39889;DHT22;25563;50.844;4.308;2022-08-18T04:44:26;21.70;99.90
39889;DHT22;25563;50.844;4.308;2022-08-18T04:46:53;21.40;99.90
39889;DHT22;25563;50.844;4.308;2022-08-18T04:49:23;21.30;99.90
39889;DHT22;25563;50.844;4.308;2022-08-18T04:51:53;21.30;99.90
39889;DHT22;25563;50.844;4.308;2022-08-18T04:54:57;21.30;99.90
39889;DHT22;25563;50.844;4.308;2022-08-18T04:57:25;21.20;99.90
39889;DHT22;25563;50.844;4.308;2022-08-18T04:59:51;21.10;99.90
39889;DHT22;25563;50.844;4.308;2022-08-18T05:02:18;21.00;99.90
39889;DHT22;25563;50.844;4.308;2022-08-18T05:04:44;20.90;99.90
39889;DHT22;25563;50.844;4.308;2022-08-18T05:07:19;20.80;99.90
39889;DHT22;25563;50.844;4.308;2022-08-18T05:09:45;20.80;99.90
39889;DHT22;25563;50.844;4.308;2022-08-18T05:12:14;20.70;99.90
39889;DHT22;25563;50.844;4.308;2022-08-18T05:14:42;20.70;99.90
39889;DHT22;25563;50.844;4.308;2022-08-18T05:17:12;20.60;99.90
39889;DHT22;25563;50.844;4.308;2022-08-18T05:19:38;20.50;99.90
39889;DHT22;25563;50.844;4.308;2022-08-18T05:22:04;20.50;99.90
39889;DHT22;25563;50.844;4.308;2022-08-18T05:24:32;20.40;99.90
39889;DHT22;25563;50.844;4.308;2022-08-18T05:27:00;20.40;99.90
39889;DHT22;25563;50.844;4.308;2022-08-18T05:29:28;20.30;99.90
39889;DHT22;25563;50.844;4.308;2022-08-18T05:32:00;20.30;99.90
39889;DHT22;25563;50.844;4.308;2022-08-18T05:34:28;20.30;99.90
39889;DHT22;25563;50.844;4.308;2022-08-18T05:39:59;20.30;99.90
39889;DHT22;25563;50.844;4.308;2022-08-18T05:42:26;20.40;99.90
39889;DHT22;25563;50.844;4.308;2022-08-18T05:44:54;20.40;99.90
39889;DHT22;25563;50.844;4.308;2022-08-18T05:47:27;20.40;99.90
39889;DHT22;25563;50.844;4.308;2022-08-18T05:49:56;20.40;99.90
39889;DHT22;25563;50.844;4.308;2022-08-18T05:55:23;20.50;99.90
39889;DHT22;25563;50.844;4.308;2022-08-18T05:58:22;20.50;99.90
39889;DHT22;25563;50.844;4.308;2022-08-18T06:00:53;20.50;99.90
39889;DHT22;25563;50.844;4.308;2022-08-18T06:03:42;20.60;99.90
39889;DHT22;25563;50.844;4.308;2022-08-18T06:06:22;20.60;99.90
39889;DHT22;25563;50.844;4.308;2022-08-18T06:09:12;20.60;99.90
39889;DHT22;25563;50.844;4.308;2022-08-18T06:11:42;20.50;99.90
39889;DHT22;25563;50.844;4.308;2022-08-18T06:14:09;20.50;99.90
39889;DHT22;25563;50.844;4.308;2022-08-18T06:17:01;20.50;99.90
39889;DHT22;25563;50.844;4.308;2022-08-18T06:19:43;20.60;99.90
39889;DHT22;25563;50.844;4.308;2022-08-18T06:25:32;20.60;99.90
39889;DHT22;25563;50.844;4.308;2022-08-18T06:28:07;20.70;99.90
39889;DHT22;25563;50.844;4.308;2022-08-18T06:36:16;20.70;99.90
39889;DHT22;25563;50.844;4.308;2022-08-18T06:39:11;20.70;99.90
39889;DHT22;25563;50.844;4.308;2022-08-18T06:41:48;20.70;99.90
39889;DHT22;25563;50.844;4.308;2022-08-18T06:44:24;20.80;99.90
39889;DHT22;25563;50.844;4.308;2022-08-18T06:46:57;20.90;99.90
39889;DHT22;25563;50.844;4.308;2022-08-18T06:49:49;20.90;99.90
39889;DHT22;25563;50.844;4.308;2022-08-18T06:52:29;21.00;99.90
39889;DHT22;25563;50.844;4.308;2022-08-18T06:54:58;21.00;99.90
39889;DHT22;25563;50.844;4.308;2022-08-18T06:57:37;21.10;99.90
39889;DHT22;25563;50.844;4.308;2022-08-18T07:00:25;21.00;99.90
39889;DHT22;25563;50.844;4.308;2022-08-18T07:02:59;21.50;99.90
39889;DHT22;25563;50.844;4.308;2022-08-18T07:05:28;21.70;99.90
39889;DHT22;25563;50.844;4.308;2022-08-18T07:08:22;21.70;99.90
39889;DHT22;25563;50.844;4.308;2022-08-18T07:10:54;21.80;99.90
39889;DHT22;25563;50.844;4.308;2022-08-18T07:13:24;22.00;99.90
39889;DHT22;25563;50.844;4.308;2022-08-18T07:15:51;22.20;99.90
39889;DHT22;25563;50.844;4.308;2022-08-18T07:18:25;22.40;99.90
39889;DHT22;25563;50.844;4.308;2022-08-18T07:20:55;22.60;99.50
39889;DHT22;25563;50.844;4.308;2022-08-18T07:23:34;22.80;98.80
39889;DHT22;25563;50.844;4.308;2022-08-18T07:26:14;23.00;98.80
39889;DHT22;25563;50.844;4.308;2022-08-18T07:28:51;23.10;98.30
39889;DHT22;25563;50.844;4.308;2022-08-18T07:34:09;23.40;97.50
39889;DHT22;25563;50.844;4.308;2022-08-18T07:36:46;23.60;97.00
39889;DHT22;25563;50.844;4.308;2022-08-18T07:39:22;23.80;95.90
39889;DHT22;25563;50.844;4.308;2022-08-18T07:42:14;23.80;96.10
39889;DHT22;25563;50.844;4.308;2022-08-18T07:45:15;23.70;96.20
39889;DHT22;25563;50.844;4.308;2022-08-18T07:48:09;23.60;96.10
39889;DHT22;25563;50.844;4.308;2022-08-18T07:56:04;23.20;96.80
39889;DHT22;25563;50.844;4.308;2022-08-18T07:58:48;23.20;97.20
39889;DHT22;25563;50.844;4.308;2022-08-18T08:07:03;23.10;96.50
39889;DHT22;25563;50.844;4.308;2022-08-18T08:10:14;23.10;96.80
39889;DHT22;25563;50.844;4.308;2022-08-18T08:15:34;23.00;96.90
39889;DHT22;25563;50.844;4.308;2022-08-18T08:18:22;22.80;97.10
39889;DHT22;25563;50.844;4.308;2022-08-18T08:21:08;22.90;97.30
39889;DHT22;25563;50.844;4.308;2022-08-18T08:24:12;22.90;97.40
39889;DHT22;25563;50.844;4.308;2022-08-18T08:34:50;23.60;95.60
39889;DHT22;25563;50.844;4.308;2022-08-18T08:37:42;23.80;95.30
39889;DHT22;25563;50.844;4.308;2022-08-18T08:40:19;23.80;95.30
39889;DHT22;25563;50.844;4.308;2022-08-18T08:43:02;23.90;95.30
39889;DHT22;25563;50.844;4.308;2022-08-18T08:45:35;24.00;95.00
39889;DHT22;25563;50.844;4.308;2022-08-18T08:50:37;24.20;94.50
39889;DHT22;25563;50.844;4.308;2022-08-18T08:53:11;24.20;94.40
39889;DHT22;25563;50.844;4.308;2022-08-18T08:55:48;24.30;94.30
39889;DHT22;25563;50.844;4.308;2022-08-18T08:58:28;24.40;94.00
39889;DHT22;25563;50.844;4.308;2022-08-18T09:00:57;24.50;93.60
39889;DHT22;25563;50.844;4.308;2022-08-18T09:03:34;24.60;92.30
39889;DHT22;25563;50.844;4.308;2022-08-18T09:17:24;25.10;92.10
39889;DHT22;25563;50.844;4.308;2022-08-18T09:22:50;25.40;91.20
39889;DHT22;25563;50.844;4.308;2022-08-18T09:31:13;25.90;90.20
39889;DHT22;25563;50.844;4.308;2022-08-18T09:41:57;25.70;90.00
39889;DHT22;25563;50.844;4.308;2022-08-18T09:47:08;25.40;90.20
39889;DHT22;25563;50.844;4.308;2022-08-18T09:49:43;25.20;90.60
39889;DHT22;25563;50.844;4.308;2022-08-18T09:54:58;25.00;90.60
39889;DHT22;25563;50.844;4.308;2022-08-18T09:57:27;24.90;90.70
39889;DHT22;25563;50.844;4.308;2022-08-18T10:10:51;25.20;89.30
39889;DHT22;25563;50.844;4.308;2022-08-18T10:13:27;25.30;89.40
39889;DHT22;25563;50.844;4.308;2022-08-18T10:21:23;25.70;87.30
39889;DHT22;25563;50.844;4.308;2022-08-18T10:24:13;25.90;86.70
39889;DHT22;25563;50.844;4.308;2022-08-18T10:34:46;26.70;84.00
39889;DHT22;25563;50.844;4.308;2022-08-18T10:37:50;26.90;83.90
39889;DHT22;25563;50.844;4.308;2022-08-18T10:40:19;27.00;83.30
39889;DHT22;25563;50.844;4.308;2022-08-18T10:45:36;27.00;82.00
39889;DHT22;25563;50.844;4.308;2022-08-18T10:48:26;27.00;80.90
39889;DHT22;25563;50.844;4.308;2022-08-18T11:02:14;27.20;80.70
39889;DHT22;25563;50.844;4.308;2022-08-18T11:04:46;27.40;80.60
39889;DHT22;25563;50.844;4.308;2022-08-18T11:07:25;27.60;79.10
39889;DHT22;25563;50.844;4.308;2022-08-18T11:09:54;27.70;79.10
39889;DHT22;25563;50.844;4.308;2022-08-18T11:18:36;28.80;76.20
39889;DHT22;25563;50.844;4.308;2022-08-18T11:21:23;29.10;74.10
39889;DHT22;25563;50.844;4.308;2022-08-18T11:26:57;28.90;71.60
39889;DHT22;25563;50.844;4.308;2022-08-18T11:29:35;28.70;71.70
39889;DHT22;25563;50.844;4.308;2022-08-18T11:32:24;28.50;73.10
39889;DHT22;25563;50.844;4.308;2022-08-18T11:43:00;27.90;71.40
39889;DHT22;25563;50.844;4.308;2022-08-18T11:45:33;28.10;70.00
39889;DHT22;25563;50.844;4.308;2022-08-18T11:53:37;29.10;66.90
39889;DHT22;25563;50.844;4.308;2022-08-18T11:56:24;30.60;64.20
39889;DHT22;25563;50.844;4.308;2022-08-18T11:58:57;32.80;61.60
39889;DHT22;25563;50.844;4.308;2022-08-18T12:04:13;34.70;56.80
39889;DHT22;25563;50.844;4.308;2022-08-18T12:06:53;33.70;56.40
39889;DHT22;25563;50.844;4.308;2022-08-18T12:09:48;32.40;57.90
39889;DHT22;25563;50.844;4.308;2022-08-18T12:12:26;31.50;58.10
39889;DHT22;25563;50.844;4.308;2022-08-18T12:17:23;32.30;57.60
39889;DHT22;25563;50.844;4.308;2022-08-18T12:19:49;34.30;54.70
39889;DHT22;25563;50.844;4.308;2022-08-18T12:22:21;33.90;53.60
39889;DHT22;25563;50.844;4.308;2022-08-18T12:24:48;34.20;53.50
39889;DHT22;25563;50.844;4.308;2022-08-18T12:27:15;35.70;52.30
39889;DHT22;25563;50.844;4.308;2022-08-18T12:29:41;36.90;50.50
39889;DHT22;25563;50.844;4.308;2022-08-18T12:32:08;38.40;49.70
39889;DHT22;25563;50.844;4.308;2022-08-18T12:34:34;39.70;47.90
39889;DHT22;25563;50.844;4.308;2022-08-18T12:37:00;40.60;46.20
39889;DHT22;25563;50.844;4.308;2022-08-18T12:39:26;40.90;45.30
39889;DHT22;25563;50.844;4.308;2022-08-18T12:41:53;40.00;45.70
39889;DHT22;25563;50.844;4.308;2022-08-18T12:44:20;37.70;47.50
39889;DHT22;25563;50.844;4.308;2022-08-18T12:46:46;35.80;50.00
39889;DHT22;25563;50.844;4.308;2022-08-18T12:49:20;34.20;52.00
39889;DHT22;25563;50.844;4.308;2022-08-18T12:51:47;33.10;53.60
39889;DHT22;25563;50.844;4.308;2022-08-18T12:54:13;32.30;55.10
39889;DHT22;25563;50.844;4.308;2022-08-18T12:56:40;31.50;56.20
39889;DHT22;25563;50.844;4.308;2022-08-18T12:59:08;31.20;57.50
39889;DHT22;25563;50.844;4.308;2022-08-18T13:01:37;31.00;57.40
39889;DHT22;25563;50.844;4.308;2022-08-18T13:04:04;30.80;57.30
39889;DHT22;25563;50.844;4.308;2022-08-18T13:06:32;30.70;57.90
39889;DHT22;25563;50.844;4.308;2022-08-18T13:08:58;30.50;58.10
39889;DHT22;25563;50.844;4.308;2022-08-18T13:11:24;31.20;58.30
39889;DHT22;25563;50.844;4.308;2022-08-18T13:13:51;33.80;54.30
39889;DHT22;25563;50.844;4.308;2022-08-18T13:16:18;36.30;51.10
39889;DHT22;25563;50.844;4.308;2022-08-18T13:18:44;38.30;48.80
39889;DHT22;25563;50.844;4.308;2022-08-18T13:21:14;39.60;47.50
39889;DHT22;25563;50.844;4.308;2022-08-18T13:23:40;40.40;46.00
39889;DHT22;25563;50.844;4.308;2022-08-18T13:26:11;40.70;45.00
39889;DHT22;25563;50.844;4.308;2022-08-18T13:28:38;41.20;45.00
39889;DHT22;25563;50.844;4.308;2022-08-18T13:31:05;41.90;43.70
39889;DHT22;25563;50.844;4.308;2022-08-18T13:33:31;41.10;43.40
39889;DHT22;25563;50.844;4.308;2022-08-18T13:35:57;40.10;43.90
39889;DHT22;25563;50.844;4.308;2022-08-18T13:38:24;38.10;45.00
39889;DHT22;25563;50.844;4.308;2022-08-18T13:40:53;36.40;46.70
39889;DHT22;25563;50.844;4.308;2022-08-18T13:43:23;35.40;47.60
39889;DHT22;25563;50.844;4.308;2022-08-18T13:45:51;35.60;48.80
39889;DHT22;25563;50.844;4.308;2022-08-18T13:48:18;36.50;47.80
39889;DHT22;25563;50.844;4.308;2022-08-18T13:50:44;35.40;49.10
39889;DHT22;25563;50.844;4.308;2022-08-18T13:53:14;34.40;50.50
39889;DHT22;25563;50.844;4.308;2022-08-18T13:55:44;33.50;51.80
39889;DHT22;25563;50.844;4.308;2022-08-18T13:58:10;34.60;51.50
39889;DHT22;25563;50.844;4.308;2022-08-18T14:00:37;37.10;49.50
39889;DHT22;25563;50.844;4.308;2022-08-18T14:03:03;38.90;47.80
39889;DHT22;25563;50.844;4.308;2022-08-18T14:05:30;39.70;46.20
39889;DHT22;25563;50.844;4.308;2022-08-18T14:07:56;40.20;45.80
39889;DHT22;25563;50.844;4.308;2022-08-18T14:10:22;40.70;45.70
39889;DHT22;25563;50.844;4.308;2022-08-18T14:12:55;41.20;44.90
39889;DHT22;25563;50.844;4.308;2022-08-18T14:15:22;41.90;44.40
39889;DHT22;25563;50.844;4.308;2022-08-18T14:17:49;41.60;44.50
39889;DHT22;25563;50.844;4.308;2022-08-18T14:20:15;41.70;44.50
39889;DHT22;25563;50.844;4.308;2022-08-18T14:23:00;42.20;44.40
39889;DHT22;25563;50.844;4.308;2022-08-18T14:25:45;42.70;43.80
39889;DHT22;25563;50.844;4.308;2022-08-18T14:28:30;41.10;44.10
39889;DHT22;25563;50.844;4.308;2022-08-18T14:30:57;39.30;46.10
39889;DHT22;25563;50.844;4.308;2022-08-18T14:33:25;39.80;46.30
39889;DHT22;25563;50.844;4.308;2022-08-18T14:35:51;39.10;47.10
39889;DHT22;25563;50.844;4.308;2022-08-18T14:38:17;39.50;46.70
39889;DHT22;25563;50.844;4.308;2022-08-18T14:40:45;38.00;47.30
39889;DHT22;25563;50.844;4.308;2022-08-18T14:43:12;36.60;49.10
39889;DHT22;25563;50.844;4.308;2022-08-18T14:45:39;35.50;50.00
39889;DHT22;25563;50.844;4.308;2022-08-18T14:48:10;34.70;51.60
39889;DHT22;25563;50.844;4.308;2022-08-18T14:50:36;34.10;52.70
39889;DHT22;25563;50.844;4.308;2022-08-18T14:53:03;35.70;51.40
39889;DHT22;25563;50.844;4.308;2022-08-18T14:55:31;37.40;49.10
39889;DHT22;25563;50.844;4.308;2022-08-18T14:57:58;38.80;47.80
39889;DHT22;25563;50.844;4.308;2022-08-18T15:00:24;39.70;46.70
39889;DHT22;25563;50.844;4.308;2022-08-18T15:02:49;38.60;47.10
39889;DHT22;25563;50.844;4.308;2022-08-18T15:05:16;36.90;48.70
39889;DHT22;25563;50.844;4.308;2022-08-18T15:07:42;35.90;49.90
39889;DHT22;25563;50.844;4.308;2022-08-18T15:10:09;35.20;50.80
39889;DHT22;25563;50.844;4.308;2022-08-18T15:12:35;35.90;50.40
39889;DHT22;25563;50.844;4.308;2022-08-18T15:15:03;36.00;49.40
39889;DHT22;25563;50.844;4.308;2022-08-18T15:17:29;36.70;49.10
39889;DHT22;25563;50.844;4.308;2022-08-18T15:19:56;38.20;47.40
39889;DHT22;25563;50.844;4.308;2022-08-18T15:22:22;38.90;46.80
39889;DHT22;25563;50.844;4.308;2022-08-18T15:25:07;39.60;45.80
39889;DHT22;25563;50.844;4.308;2022-08-18T15:27:52;40.00;45.50
39889;DHT22;25563;50.844;4.308;2022-08-18T15:30:20;40.50;44.70
39889;DHT22;25563;50.844;4.308;2022-08-18T15:32:47;40.70;44.70
39889;DHT22;25563;50.844;4.308;2022-08-18T15:35:14;40.50;44.90
39889;DHT22;25563;50.844;4.308;2022-08-18T15:37:42;40.50;44.80
39889;DHT22;25563;50.844;4.308;2022-08-18T15:40:29;40.60;44.90
39889;DHT22;25563;50.844;4.308;2022-08-18T15:42:57;40.40;44.80
39889;DHT22;25563;50.844;4.308;2022-08-18T15:45:29;40.10;44.90
39889;DHT22;25563;50.844;4.308;2022-08-18T15:47:57;40.00;45.20
39889;DHT22;25563;50.844;4.308;2022-08-18T15:50:23;39.60;45.30
39889;DHT22;25563;50.844;4.308;2022-08-18T15:52:51;39.40;45.50
39889;DHT22;25563;50.844;4.308;2022-08-18T15:55:18;39.60;45.10
39889;DHT22;25563;50.844;4.308;2022-08-18T15:57:44;39.90;45.20
39889;DHT22;25563;50.844;4.308;2022-08-18T16:00:10;40.30;44.70
39889;DHT22;25563;50.844;4.308;2022-08-18T16:02:38;40.20;44.50
39889;DHT22;25563;50.844;4.308;2022-08-18T16:05:05;40.10;44.60
39889;DHT22;25563;50.844;4.308;2022-08-18T16:07:31;39.70;44.70
39889;DHT22;25563;50.844;4.308;2022-08-18T16:09:58;39.70;44.70
39889;DHT22;25563;50.844;4.308;2022-08-18T16:12:26;39.90;44.50
39889;DHT22;25563;50.844;4.308;2022-08-18T16:14:52;39.90;44.20
39889;DHT22;25563;50.844;4.308;2022-08-18T16:17:18;39.70;44.00
39889;DHT22;25563;50.844;4.308;2022-08-18T16:19:47;39.40;43.90
39889;DHT22;25563;50.844;4.308;2022-08-18T16:22:14;39.10;44.50
39889;DHT22;25563;50.844;4.308;2022-08-18T16:24:40;39.20;44.40
39889;DHT22;25563;50.844;4.308;2022-08-18T16:27:06;39.20;44.30
39889;DHT22;25563;50.844;4.308;2022-08-18T16:29:33;38.90;44.10
39889;DHT22;25563;50.844;4.308;2022-08-18T16:31:59;37.90;44.90
39889;DHT22;25563;50.844;4.308;2022-08-18T16:34:26;36.40;45.90
39889;DHT22;25563;50.844;4.308;2022-08-18T16:36:53;35.20;47.30
39889;DHT22;25563;50.844;4.308;2022-08-18T16:39:21;34.40;48.30
39889;DHT22;25563;50.844;4.308;2022-08-18T16:41:48;33.60;49.40
39889;DHT22;25563;50.844;4.308;2022-08-18T16:44:14;32.90;50.20
39889;DHT22;25563;50.844;4.308;2022-08-18T16:46:41;32.40;51.10
39889;DHT22;25563;50.844;4.308;2022-08-18T16:49:09;32.00;51.20
39889;DHT22;25563;50.844;4.308;2022-08-18T16:51:38;31.70;52.00
39889;DHT22;25563;50.844;4.308;2022-08-18T16:54:04;31.30;52.40
39889;DHT22;25563;50.844;4.308;2022-08-18T16:56:33;31.00;52.70
39889;DHT22;25563;50.844;4.308;2022-08-18T16:59:00;30.90;53.10
39889;DHT22;25563;50.844;4.308;2022-08-18T17:01:45;30.60;54.40
39889;DHT22;25563;50.844;4.308;2022-08-18T17:04:30;30.50;55.30
39889;DHT22;25563;50.844;4.308;2022-08-18T17:06:58;30.20;56.10
39889;DHT22;25563;50.844;4.308;2022-08-18T17:09:25;30.10;56.60
39889;DHT22;25563;50.844;4.308;2022-08-18T17:11:51;29.90;57.10
39889;DHT22;25563;50.844;4.308;2022-08-18T17:14:21;29.90;57.60
39889;DHT22;25563;50.844;4.308;2022-08-18T17:16:49;29.90;57.40
39889;DHT22;25563;50.844;4.308;2022-08-18T17:19:21;29.80;57.30
39889;DHT22;25563;50.844;4.308;2022-08-18T17:21:47;29.80;57.80
39889;DHT22;25563;50.844;4.308;2022-08-18T17:24:13;29.60;57.70
39889;DHT22;25563;50.844;4.308;2022-08-18T17:26:52;29.40;58.50
39889;DHT22;25563;50.844;4.308;2022-08-18T17:35:17;28.90;59.60
39889;DHT22;25563;50.844;4.308;2022-08-18T17:37:52;28.70;59.70
39889;DHT22;25563;50.844;4.308;2022-08-18T17:40:27;28.70;60.00
39889;DHT22;25563;50.844;4.308;2022-08-18T17:42:54;28.70;60.10
39889;DHT22;25563;50.844;4.308;2022-08-18T17:45:21;28.60;60.20
39889;DHT22;25563;50.844;4.308;2022-08-18T17:47:58;28.50;60.20
39889;DHT22;25563;50.844;4.308;2022-08-18T17:50:37;28.50;60.60
39889;DHT22;25563;50.844;4.308;2022-08-18T17:53:24;28.50;60.60
39889;DHT22;25563;50.844;4.308;2022-08-18T17:55:54;28.50;60.80
39889;DHT22;25563;50.844;4.308;2022-08-18T17:58:59;28.50;60.70
39889;DHT22;25563;50.844;4.308;2022-08-18T18:01:28;28.40;60.90
39889;DHT22;25563;50.844;4.308;2022-08-18T18:03:56;28.30;61.40
39889;DHT22;25563;50.844;4.308;2022-08-18T18:09:11;28.00;62.00
39889;DHT22;25563;50.844;4.308;2022-08-18T18:11:52;28.00;61.90
39889;DHT22;25563;50.844;4.308;2022-08-18T18:14:28;27.90;62.30
39889;DHT22;25563;50.844;4.308;2022-08-18T18:17:04;27.90;62.40
39889;DHT22;25563;50.844;4.308;2022-08-18T18:19:34;27.80;62.60
39889;DHT22;25563;50.844;4.308;2022-08-18T18:22:07;27.70;62.80
39889;DHT22;25563;50.844;4.308;2022-08-18T18:24:38;27.60;63.10
39889;DHT22;25563;50.844;4.308;2022-08-18T18:27:25;27.60;63.50
39889;DHT22;25563;50.844;4.308;2022-08-18T18:32:55;27.40;63.50